메인 페이지
METAR-TAF:

METAR-TAF

공항 :

핼리팩스 스탠필드 국제공항

핼리팩스, 노바스코샤, 캐나다

위도: 44-53N, 경도: 063-30W, 고도: 145m

현재 날씨관측

예보는 48분 전, 09:00시(UTC)에 발표되었습니다.
남서6kt
온도 3°C
습도 87%
기압 1022 hPa
시정: 24.1km
맑음

METAR: CYHZ 150900Z 22006KT 15SM SKC 03/01 A3018 RMK SLP227

시각: 06:48 (09:48 UTC)

예보

예보는 1 시간 10분 전, 08:38시(UTC)에 발표되었습니다.
예보 대상 시간: 15일 09시부터 16일 06시까지 (UTC)
서남서6kt
시정: 10km
맑음
15일 1500시부터 (UTC)
남남서8kt
시정: 10km
고도 3000ft 상공 구름 조금
고도 12000ft 상공 구름 보통
전환 중
15일 16시부터 15일 18시까지 (UTC)
남남서15kt
15일 2200시부터 (UTC)
남남서15kt
시정: 10km
고도 4000ft 상공 구름 많음
고도 20000ft 상공 흐림
16일 0100시부터 (UTC)
15kt
시정: 10km
고도 2000ft 상공 구름 많음
고도 8000ft 상공 흐림
약한비
전환 중
16일 01시부터 16일 03시까지 (UTC)
시정: 6.4km
고도 900ft 상공 흐림
약한비, 박무
16일 0400시부터 (UTC)
20kt
시정: 3.2km
고도 300ft 상공 흐림
비, 박무

TAF: CYHZ 150838Z 1509/1606 24006KT P6SM SKC FM151500 20008KT P6SM FEW030 SCT120 BECMG 1516/1518 20015KT FM152200 20015KT P6SM BKN040 OVC200 FM160100 19015KT P6SM -RA BKN020 OVC080 BECMG 1601/1603 4SM -RA BR OVC009 FM160400 18020KT 2SM RA BR OVC003 RMK NXT FCST BY 151200Z

4,000개 이상의 공항 관측 자료 및 예보 (METAR 및 TAF 보고).

지도상에서 검색 가능한 기상관측소가 노란 점과 빨간 점으로 표시되어 있습니다.

기상관측소 명을 보려면 표시 위로 마우스를 이동하세요.

날씨 관측과 예보를 보려면 클릭하세요.

지도 변경 : 확대하려면 엑스 표시가 있는 녹색 버튼, 축소하려면 빼기 표시가 있는 녹색 버튼, 다음 페이지의 지도를 보려면 녹색 화살표를 클릭하세요.


METAR-TAF: